createdAt,value
2019-05-03T00:00:15.992Z,2.70
2019-05-03T00:01:15.985Z,3.00
2019-05-03T00:02:15.984Z,3.10
2019-05-03T00:03:15.977Z,2.80
2019-05-03T00:04:15.971Z,2.70
2019-05-03T00:05:15.966Z,2.70
2019-05-03T00:06:15.961Z,2.20
2019-05-03T00:07:15.956Z,2.90
2019-05-03T00:08:15.950Z,2.80
2019-05-03T00:09:15.946Z,2.70
2019-05-03T00:10:15.941Z,2.70
2019-05-03T00:11:15.936Z,3.00
2019-05-03T00:12:15.936Z,2.70
2019-05-03T00:13:15.926Z,2.60
2019-05-03T00:14:15.921Z,3.40
2019-05-03T00:15:15.914Z,3.10
2019-05-03T00:16:15.911Z,3.10
2019-05-03T00:17:15.905Z,2.60
2019-05-03T00:18:15.900Z,3.30
2019-05-03T00:19:15.906Z,3.40
2019-05-03T00:20:15.890Z,2.90
2019-05-03T00:21:15.885Z,2.60
2019-05-03T00:22:15.879Z,3.00
2019-05-03T00:23:15.874Z,3.60
2019-05-03T00:24:15.868Z,3.30
2019-05-03T00:25:15.863Z,3.20
2019-05-03T00:26:15.858Z,3.30
2019-05-03T00:27:15.864Z,2.50
2019-05-03T00:28:15.848Z,3.50
2019-05-03T00:29:15.843Z,4.00
2019-05-03T00:30:15.837Z,3.60
2019-05-03T00:31:15.833Z,3.20
2019-05-03T00:32:15.827Z,3.60
2019-05-03T00:33:15.824Z,3.70
2019-05-03T00:34:15.816Z,3.60
2019-05-03T00:35:15.816Z,3.80
2019-05-03T00:36:15.811Z,3.20
2019-05-03T00:37:15.803Z,3.60
2019-05-03T00:38:15.797Z,3.90
2019-05-03T00:39:15.792Z,3.20
2019-05-03T00:40:15.785Z,3.40
2019-05-03T00:41:15.783Z,3.60
2019-05-03T00:42:15.784Z,4.00
2019-05-03T00:43:15.772Z,3.70
2019-05-03T00:44:15.767Z,3.70
2019-05-03T00:45:15.761Z,4.10
2019-05-03T00:46:15.756Z,3.50
2019-05-03T00:47:15.751Z,3.80
2019-05-03T00:48:15.749Z,3.40
2019-05-03T00:49:15.740Z,3.90
2019-05-03T00:50:15.735Z,3.30
2019-05-03T00:51:15.732Z,3.80
2019-05-03T00:52:15.725Z,3.30
2019-05-03T00:53:15.720Z,4.00
2019-05-03T00:54:15.716Z,3.80
2019-05-03T00:55:18.753Z,3.50
2019-05-03T00:56:15.714Z,3.40
2019-05-03T00:57:15.703Z,3.70
2019-05-03T00:58:15.695Z,3.90
2019-05-03T00:59:15.690Z,3.70
2019-05-03T01:00:15.685Z,3.60
2019-05-03T01:01:15.679Z,3.80
2019-05-03T01:02:15.674Z,3.40
2019-05-03T01:03:15.670Z,3.40
2019-05-03T01:04:15.662Z,3.90
2019-05-03T01:05:15.657Z,3.50
2019-05-03T01:06:15.652Z,3.30
2019-05-03T01:07:15.650Z,3.10
2019-05-03T01:08:15.645Z,3.30
2019-05-03T01:09:15.636Z,3.80
2019-05-03T01:10:15.631Z,3.40
2019-05-03T01:11:15.627Z,3.50
2019-05-03T01:12:15.624Z,4.00
2019-05-03T01:13:15.616Z,3.90
2019-05-03T01:14:15.613Z,3.30
2019-05-03T01:15:15.607Z,3.90
2019-05-03T01:16:15.601Z,3.40
2019-05-03T01:17:15.597Z,3.60
2019-05-03T01:18:15.591Z,3.90
2019-05-03T01:19:15.586Z,3.20
2019-05-03T01:20:15.581Z,3.90
2019-05-03T01:21:15.575Z,4.00
2019-05-03T01:22:15.570Z,3.40
2019-05-03T01:23:15.565Z,3.60
2019-05-03T01:24:18.125Z,4.40
2019-05-03T01:25:15.553Z,3.80
2019-05-03T01:26:15.548Z,3.20
2019-05-03T01:27:15.543Z,3.50
2019-05-03T01:28:15.538Z,3.30
2019-05-03T01:29:15.532Z,3.40
2019-05-03T01:30:15.528Z,3.70
2019-05-03T01:31:15.522Z,3.50
2019-05-03T01:32:15.517Z,3.20
2019-05-03T01:33:15.511Z,4.10
2019-05-03T01:34:15.506Z,3.40
2019-05-03T01:35:15.518Z,3.30
2019-05-03T01:36:15.497Z,3.80
2019-05-03T01:37:15.492Z,3.70
2019-05-03T01:38:15.487Z,3.30
2019-05-03T01:39:15.482Z,3.60
2019-05-03T01:40:15.476Z,3.10
2019-05-03T01:41:15.470Z,3.70
2019-05-03T01:42:15.465Z,3.40
2019-05-03T01:43:15.461Z,3.20
2019-05-03T01:44:15.459Z,3.80
2019-05-03T01:45:15.451Z,3.30
2019-05-03T01:46:15.444Z,3.50
2019-05-03T01:47:15.440Z,3.40
2019-05-03T01:48:15.434Z,3.10
2019-05-03T01:49:15.428Z,4.00
2019-05-03T01:50:15.423Z,3.50
2019-05-03T01:51:15.418Z,3.40
2019-05-03T01:52:15.412Z,3.30
2019-05-03T01:53:15.407Z,3.40
2019-05-03T01:54:15.403Z,3.60
2019-05-03T01:55:16.001Z,4.40
2019-05-03T01:56:15.397Z,3.50
2019-05-03T01:57:15.386Z,3.80
2019-05-03T01:58:15.382Z,3.40
2019-05-03T01:59:15.377Z,3.20
2019-05-03T02:00:15.382Z,3.50
2019-05-03T02:01:15.365Z,3.50
2019-05-03T02:02:15.362Z,3.40
2019-05-03T02:03:15.356Z,3.90
2019-05-03T02:04:15.350Z,3.20
2019-05-03T02:05:15.347Z,3.20
2019-05-03T02:06:15.342Z,3.90
2019-05-03T02:07:15.334Z,3.70
2019-05-03T02:08:15.331Z,3.70
2019-05-03T02:09:15.323Z,3.80
2019-05-03T02:10:15.319Z,3.50
2019-05-03T02:11:15.314Z,3.40
2019-05-03T02:12:15.315Z,3.70
2019-05-03T02:13:15.303Z,4.20
2019-05-03T02:14:15.299Z,3.00
2019-05-03T02:15:15.293Z,3.30
2019-05-03T02:16:15.296Z,3.80
2019-05-03T02:17:15.281Z,3.70
2019-05-03T02:18:15.314Z,3.80
2019-05-03T02:19:15.271Z,3.50
2019-05-03T02:20:15.266Z,3.30
2019-05-03T02:21:15.260Z,3.10
2019-05-03T02:22:15.256Z,3.50
2019-05-03T02:23:15.251Z,3.20
2019-05-03T02:24:15.245Z,3.80
2019-05-03T02:25:15.240Z,3.20
2019-05-03T02:26:15.235Z,3.40
2019-05-03T02:27:15.232Z,2.70
2019-05-03T02:28:15.225Z,3.60
2019-05-03T02:29:15.222Z,2.80
2019-05-03T02:30:15.215Z,3.00
2019-05-03T02:31:15.210Z,3.40
2019-05-03T02:32:15.204Z,3.60
2019-05-03T02:33:15.199Z,3.00
2019-05-03T02:34:15.194Z,3.40
2019-05-03T02:35:15.191Z,2.90
2019-05-03T02:36:15.183Z,3.00
2019-05-03T02:37:15.176Z,3.60
2019-05-03T02:38:15.179Z,3.40
2019-05-03T02:39:15.166Z,2.50
2019-05-03T02:40:15.161Z,2.40
2019-05-03T02:41:15.157Z,2.10
2019-05-03T02:42:16.109Z,2.00
2019-05-03T02:43:16.520Z,2.70
2019-05-03T02:44:15.593Z,2.40
2019-05-03T02:45:15.484Z,2.50
2019-05-03T02:46:16.721Z,2.60
2019-05-03T02:47:15.917Z,2.20
2019-05-03T02:48:16.577Z,2.70
2019-05-03T02:49:15.421Z,2.20
2019-05-03T02:50:16.719Z,2.00
2019-05-03T02:51:15.727Z,2.10
2019-05-03T02:52:15.235Z,3.00
2019-05-03T02:53:15.780Z,2.20
2019-05-03T02:54:15.698Z,2.70
2019-05-03T02:55:15.992Z,2.50
2019-05-03T02:56:22.010Z,2.00
2019-05-03T02:57:15.153Z,2.20
2019-05-03T02:58:15.915Z,2.50
2019-05-03T02:59:15.800Z,1.90
2019-05-03T03:00:16.277Z,2.00
2019-05-03T03:01:16.326Z,2.30
2019-05-03T03:02:15.220Z,2.20
2019-05-03T03:03:16.673Z,2.70
2019-05-03T03:04:15.744Z,2.00
2019-05-03T03:05:16.588Z,3.00
2019-05-03T03:06:15.766Z,2.80
2019-05-03T03:07:15.206Z,1.80
2019-05-03T03:08:16.273Z,2.10
2019-05-03T03:09:16.479Z,2.20
2019-05-03T03:10:16.188Z,2.40
2019-05-03T03:11:15.577Z,2.00
2019-05-03T03:12:15.285Z,2.60
2019-05-03T03:13:16.317Z,2.20
2019-05-03T03:14:16.731Z,2.00
2019-05-03T03:15:16.238Z,2.00
2019-05-03T03:16:16.294Z,2.20
2019-05-03T03:17:15.014Z,2.10
2019-05-03T03:18:15.742Z,2.00
2019-05-03T03:19:15.890Z,2.20
2019-05-03T03:20:16.130Z,2.70
2019-05-03T03:21:16.076Z,2.20
2019-05-03T03:22:15.937Z,2.10
2019-05-03T03:23:17.970Z,2.60
2019-05-03T03:24:16.952Z,2.80
2019-05-03T03:25:17.626Z,2.30
2019-05-03T03:26:16.977Z,2.70
2019-05-03T03:27:16.330Z,2.70
2019-05-03T03:28:15.854Z,2.70
2019-05-03T03:29:16.083Z,2.50
2019-05-03T03:30:17.353Z,2.60
2019-05-03T03:31:17.650Z,2.80
2019-05-03T03:32:18.219Z,2.90
2019-05-03T03:33:17.550Z,2.90
2019-05-03T03:34:18.395Z,3.00
2019-05-03T03:35:20.209Z,2.60
2019-05-03T03:36:37.837Z,3.00
2019-05-03T03:37:15.592Z,2.40
2019-05-03T03:38:15.507Z,2.40
2019-05-03T03:39:15.089Z,2.40
2019-05-03T03:40:16.057Z,2.30
2019-05-03T03:41:16.278Z,2.40
2019-05-03T03:42:16.082Z,2.70
2019-05-03T03:43:15.690Z,2.10
2019-05-03T03:44:15.258Z,2.00
2019-05-03T03:45:16.609Z,2.50
2019-05-03T03:46:15.763Z,2.50
2019-05-03T03:47:16.785Z,2.40
2019-05-03T03:48:15.770Z,3.00
2019-05-03T03:49:15.543Z,2.50
2019-05-03T03:50:15.144Z,2.60
2019-05-03T03:51:15.558Z,2.70
2019-05-03T03:52:15.992Z,3.10
2019-05-03T03:53:15.440Z,2.10
2019-05-03T03:54:15.471Z,2.70
2019-05-03T03:55:15.921Z,2.90
2019-05-03T03:56:15.994Z,2.20
2019-05-03T03:57:15.896Z,2.70
2019-05-03T03:58:21.923Z,2.70
2019-05-03T03:59:15.382Z,2.30
2019-05-03T04:00:16.233Z,2.80
2019-05-03T04:01:15.690Z,2.60
2019-05-03T04:02:16.061Z,2.20
2019-05-03T04:03:15.804Z,2.30
2019-05-03T04:04:16.026Z,2.80
2019-05-03T04:05:15.921Z,2.10
2019-05-03T04:06:15.381Z,2.00
2019-05-03T04:07:15.747Z,2.30
2019-05-03T04:08:16.193Z,2.20
2019-05-03T04:09:16.078Z,2.50
2019-05-03T04:10:15.665Z,2.00
2019-05-03T04:11:15.611Z,2.10
2019-05-03T04:12:16.558Z,2.30
2019-05-03T04:13:15.942Z,1.40
2019-05-03T04:14:16.131Z,2.00
2019-05-03T04:15:16.027Z,2.10
2019-05-03T04:16:20.307Z,1.40
2019-05-03T04:17:15.061Z,2.00
2019-05-03T04:18:16.331Z,1.70
2019-05-03T04:19:17.147Z,1.70
2019-05-03T04:20:16.280Z,1.60
2019-05-03T04:21:16.252Z,1.30
2019-05-03T04:22:16.484Z,1.60
2019-05-03T04:23:16.287Z,1.90
2019-05-03T04:24:16.298Z,1.80
2019-05-03T04:25:15.441Z,2.00
2019-05-03T04:26:16.334Z,1.40
2019-05-03T04:27:22.259Z,1.40
2019-05-03T04:28:16.282Z,1.60
2019-05-03T04:29:16.086Z,1.70
2019-05-03T04:30:16.473Z,1.70
2019-05-03T04:31:15.210Z,1.80
2019-05-03T04:32:15.738Z,2.00
2019-05-03T04:33:16.030Z,1.80
2019-05-03T04:34:16.189Z,1.90
2019-05-03T04:35:16.521Z,1.90
2019-05-03T04:36:16.007Z,1.60
2019-05-03T04:37:16.098Z,1.70
2019-05-03T04:38:16.208Z,2.00
2019-05-03T04:39:19.642Z,1.80
2019-05-03T04:40:15.566Z,2.10
2019-05-03T04:41:15.862Z,2.20
2019-05-03T04:42:16.583Z,1.50
2019-05-03T04:43:16.480Z,2.00
2019-05-03T04:44:15.513Z,1.80
2019-05-03T04:45:16.566Z,2.40
2019-05-03T04:46:16.411Z,1.70
2019-05-03T04:47:15.700Z,1.90
2019-05-03T04:48:15.998Z,1.70
2019-05-03T04:49:15.138Z,1.70
2019-05-03T04:50:16.309Z,1.80
2019-05-03T04:51:16.646Z,1.30
2019-05-03T04:52:16.515Z,1.90
2019-05-03T04:53:16.227Z,1.80
2019-05-03T04:54:16.340Z,1.50
2019-05-03T04:55:16.038Z,1.40
2019-05-03T04:56:16.941Z,1.30
2019-05-03T04:57:16.050Z,1.60
2019-05-03T04:58:16.091Z,1.50
2019-05-03T04:59:15.918Z,1.50
2019-05-03T05:00:15.951Z,1.60
2019-05-03T05:01:15.834Z,1.50
2019-05-03T05:02:15.886Z,1.20
2019-05-03T05:03:15.097Z,1.20
2019-05-03T05:04:16.103Z,1.30
2019-05-03T05:05:15.341Z,1.60
2019-05-03T05:06:15.433Z,1.30
2019-05-03T05:07:15.483Z,1.40
2019-05-03T05:08:16.240Z,1.60
2019-05-03T05:09:15.531Z,1.70
2019-05-03T05:10:15.302Z,1.30
2019-05-03T05:11:15.740Z,1.70
2019-05-03T05:12:16.137Z,1.50
2019-05-03T05:13:15.785Z,1.00
2019-05-03T05:14:15.321Z,1.50
2019-05-03T05:15:15.609Z,1.40
2019-05-03T05:16:16.009Z,1.40
2019-05-03T05:17:16.285Z,1.20
2019-05-03T05:18:15.938Z,1.40
2019-05-03T05:19:15.189Z,1.20
2019-05-03T05:20:14.506Z,1.10
2019-05-03T05:21:15.000Z,1.10
2019-05-03T05:22:15.529Z,1.10
2019-05-03T05:23:14.747Z,1.10
2019-05-03T05:24:15.162Z,1.30
2019-05-03T05:25:14.851Z,1.40
2019-05-03T05:26:14.462Z,1.60
2019-05-03T05:27:14.659Z,1.30
2019-05-03T05:28:15.001Z,1.00
2019-05-03T05:29:14.579Z,1.40
2019-05-03T05:30:14.924Z,1.20
2019-05-03T05:31:15.156Z,1.30
2019-05-03T05:32:14.461Z,1.30
2019-05-03T05:33:14.550Z,1.40
2019-05-03T05:34:15.360Z,1.30
2019-05-03T05:35:14.428Z,1.00
2019-05-03T05:36:15.303Z,1.50
2019-05-03T05:37:14.547Z,0.90
2019-05-03T05:38:15.000Z,1.50
2019-05-03T05:39:15.247Z,1.50
2019-05-03T05:40:15.633Z,1.40
2019-05-03T05:41:15.626Z,1.50
2019-05-03T05:42:14.892Z,1.70
2019-05-03T05:43:15.197Z,1.20
2019-05-03T05:44:14.525Z,1.70
2019-05-03T05:45:15.342Z,1.80
2019-05-03T05:46:14.647Z,2.00
2019-05-03T05:47:15.005Z,1.50
2019-05-03T05:48:15.369Z,1.40
2019-05-03T05:49:14.679Z,1.40
2019-05-03T05:50:14.890Z,1.40
2019-05-03T05:51:15.967Z,1.60
2019-05-03T05:52:15.497Z,1.50
2019-05-03T05:53:15.266Z,1.40
2019-05-03T05:54:14.374Z,1.30
2019-05-03T05:55:14.950Z,1.40
2019-05-03T05:56:15.671Z,1.50
2019-05-03T05:57:14.989Z,1.40
2019-05-03T05:58:15.562Z,1.30
2019-05-03T05:59:14.850Z,1.20
2019-05-03T06:00:15.302Z,1.10
2019-05-03T06:01:14.622Z,1.20
2019-05-03T06:02:15.033Z,1.10
2019-05-03T06:03:14.931Z,1.20
2019-05-03T06:04:15.379Z,1.30
2019-05-03T06:05:14.809Z,1.00
2019-05-03T06:06:15.255Z,1.00
2019-05-03T06:07:14.867Z,0.80
2019-05-03T06:08:15.082Z,1.20
2019-05-03T06:09:15.306Z,1.10
2019-05-03T06:10:14.745Z,0.80
2019-05-03T06:11:14.896Z,1.00
2019-05-03T06:12:14.889Z,1.00
2019-05-03T06:13:15.235Z,0.90
2019-05-03T06:14:15.317Z,0.90
2019-05-03T06:15:15.003Z,1.50
2019-05-03T06:16:15.506Z,1.10
2019-05-03T06:17:14.618Z,1.20
2019-05-03T06:18:14.631Z,1.00
2019-05-03T06:19:14.679Z,1.50
2019-05-03T06:20:15.578Z,0.90
2019-05-03T06:21:14.812Z,1.10
2019-05-03T06:22:15.354Z,1.10
2019-05-03T06:23:14.450Z,1.10
2019-05-03T06:24:14.796Z,1.20
2019-05-03T06:25:16.636Z,1.30
2019-05-03T06:26:15.637Z,1.50
2019-05-03T06:27:15.273Z,1.20
2019-05-03T06:28:19.931Z,0.90
2019-05-03T06:29:14.956Z,1.20
2019-05-03T06:30:14.965Z,1.00
2019-05-03T06:31:14.891Z,1.20
2019-05-03T06:32:15.403Z,1.20
2019-05-03T06:33:14.359Z,1.10
2019-05-03T06:34:14.959Z,1.00
2019-05-03T06:35:15.229Z,1.20
2019-05-03T06:36:15.275Z,1.00
2019-05-03T06:37:14.833Z,1.30
2019-05-03T06:38:15.256Z,1.40
2019-05-03T06:39:15.466Z,1.60
2019-05-03T06:40:14.934Z,1.00
2019-05-03T06:41:15.052Z,1.10
2019-05-03T06:42:16.030Z,1.00
2019-05-03T06:43:15.614Z,0.80
2019-05-03T06:44:14.440Z,1.00
2019-05-03T06:45:15.053Z,1.10
2019-05-03T06:46:16.421Z,0.90
2019-05-03T06:47:14.839Z,1.00
2019-05-03T06:48:15.772Z,0.70
2019-05-03T06:49:15.147Z,0.80
2019-05-03T06:50:14.561Z,1.10
2019-05-03T06:51:19.180Z,0.80
2019-05-03T06:52:14.738Z,0.80
2019-05-03T06:53:15.491Z,1.10
2019-05-03T06:54:15.637Z,0.90
2019-05-03T06:55:14.474Z,1.10
2019-05-03T06:56:14.829Z,0.90
2019-05-03T06:57:14.806Z,1.10
2019-05-03T06:58:15.314Z,1.00
2019-05-03T06:59:14.389Z,0.90
2019-05-03T07:00:15.366Z,0.70
2019-05-03T07:01:14.897Z,1.10
2019-05-03T07:02:14.869Z,0.90
2019-05-03T07:03:15.157Z,1.00
2019-05-03T07:04:15.214Z,1.10
2019-05-03T07:05:15.281Z,1.10
2019-05-03T07:06:15.043Z,1.00
2019-05-03T07:07:15.420Z,0.90
2019-05-03T07:08:15.223Z,1.00
2019-05-03T07:09:14.454Z,0.80
2019-05-03T07:10:15.028Z,1.00
2019-05-03T07:11:15.356Z,0.90
2019-05-03T07:12:14.854Z,0.90
2019-05-03T07:13:15.189Z,1.10
2019-05-03T07:14:15.433Z,1.00
2019-05-03T07:15:14.486Z,0.90
2019-05-03T07:16:14.938Z,1.00
2019-05-03T07:17:14.474Z,0.90
2019-05-03T07:18:15.586Z,1.30
2019-05-03T07:19:14.744Z,0.80
2019-05-03T07:20:14.830Z,1.00
2019-05-03T07:21:15.257Z,0.80
2019-05-03T07:22:15.233Z,1.20
2019-05-03T07:23:15.428Z,1.50
2019-05-03T07:24:14.664Z,1.50
2019-05-03T07:25:14.939Z,0.90
2019-05-03T07:26:15.061Z,0.60
2019-05-03T07:27:15.703Z,1.00
2019-05-03T07:28:14.970Z,0.90
2019-05-03T07:29:15.253Z,1.00
2019-05-03T07:30:15.541Z,0.90
2019-05-03T07:31:15.058Z,1.40
2019-05-03T07:32:15.392Z,0.80
2019-05-03T07:33:15.085Z,1.00
2019-05-03T07:34:15.427Z,1.10
2019-05-03T07:35:14.765Z,0.60
2019-05-03T07:36:15.297Z,0.80
2019-05-03T07:37:14.558Z,0.80
2019-05-03T07:38:15.485Z,1.00
2019-05-03T07:39:14.516Z,0.90
2019-05-03T07:40:14.822Z,1.00
2019-05-03T07:41:14.908Z,0.80
2019-05-03T07:42:15.526Z,1.40
2019-05-03T07:43:14.864Z,1.20
2019-05-03T07:44:15.221Z,0.90
2019-05-03T07:45:14.915Z,1.20
2019-05-03T07:46:14.681Z,1.00
2019-05-03T07:47:14.883Z,1.20
2019-05-03T07:48:15.037Z,0.80
2019-05-03T07:49:15.258Z,1.00
2019-05-03T07:50:15.236Z,0.90
2019-05-03T07:51:14.450Z,0.70
2019-05-03T07:52:14.755Z,1.10
2019-05-03T07:53:15.108Z,0.80
2019-05-03T07:54:15.514Z,1.10
2019-05-03T07:55:14.994Z,1.30
2019-05-03T07:56:15.389Z,0.80
2019-05-03T07:57:14.908Z,0.80
2019-05-03T07:58:15.024Z,0.80
2019-05-03T07:59:14.978Z,0.80
2019-05-03T08:00:14.984Z,0.90
2019-05-03T08:01:14.917Z,0.90
2019-05-03T08:02:14.466Z,0.70
2019-05-03T08:03:15.310Z,0.70
2019-05-03T08:04:15.268Z,1.00
2019-05-03T08:05:15.431Z,0.90
2019-05-03T08:06:14.936Z,0.70
2019-05-03T08:07:20.713Z,1.00
2019-05-03T08:08:14.948Z,0.70
2019-05-03T08:09:15.171Z,0.70
2019-05-03T08:10:15.311Z,0.90
2019-05-03T08:11:14.437Z,0.90
2019-05-03T08:12:15.362Z,1.20
2019-05-03T08:13:15.085Z,0.50
2019-05-03T08:14:16.079Z,0.70
2019-05-03T08:15:15.586Z,0.70
2019-05-03T08:16:15.900Z,0.80
2019-05-03T08:17:15.243Z,0.70
2019-05-03T08:18:15.364Z,0.60
2019-05-03T08:19:15.199Z,0.70
2019-05-03T08:20:14.402Z,0.80
2019-05-03T08:21:14.921Z,0.80
2019-05-03T08:22:14.957Z,0.80
2019-05-03T08:23:24.405Z,0.70
2019-05-03T08:24:14.938Z,0.90
2019-05-03T08:25:14.646Z,1.00
2019-05-03T08:26:15.311Z,0.70
2019-05-03T08:27:14.812Z,0.60
2019-05-03T08:28:14.654Z,0.70
2019-05-03T08:29:18.374Z,0.60
2019-05-03T08:30:14.775Z,0.60
2019-05-03T08:31:15.116Z,1.00
2019-05-03T08:32:15.322Z,1.00
2019-05-03T08:33:14.744Z,0.70
2019-05-03T08:34:15.274Z,0.80
2019-05-03T08:35:15.192Z,0.80
2019-05-03T08:36:15.488Z,0.80
2019-05-03T08:37:15.228Z,0.90
2019-05-03T08:38:15.197Z,0.70
2019-05-03T08:39:15.740Z,0.70
2019-05-03T08:40:15.465Z,0.90
2019-05-03T08:41:14.548Z,0.90
2019-05-03T08:42:15.000Z,1.00
2019-05-03T08:43:15.417Z,0.80
2019-05-03T08:44:14.548Z,0.90
2019-05-03T08:45:14.833Z,0.90
2019-05-03T08:46:14.845Z,0.80
2019-05-03T08:47:15.362Z,0.80
2019-05-03T08:48:15.087Z,0.80
2019-05-03T08:49:15.041Z,0.70
2019-05-03T08:50:19.386Z,1.00
2019-05-03T08:51:14.880Z,0.80
2019-05-03T08:52:15.543Z,0.80
2019-05-03T08:53:15.407Z,1.00
2019-05-03T08:54:15.076Z,0.80
2019-05-03T08:55:15.644Z,0.50
2019-05-03T08:56:15.497Z,0.80
2019-05-03T08:57:14.954Z,0.90
2019-05-03T08:58:15.360Z,0.80
2019-05-03T08:59:26.182Z,1.00
2019-05-03T09:00:14.454Z,0.80
2019-05-03T09:01:14.825Z,0.70
2019-05-03T09:02:14.266Z,0.90
2019-05-03T09:03:14.414Z,1.00
2019-05-03T09:04:15.376Z,0.90
2019-05-03T09:05:15.316Z,0.70
2019-05-03T09:06:15.318Z,0.90
2019-05-03T09:07:14.766Z,0.80
2019-05-03T09:08:15.577Z,0.70
2019-05-03T09:09:15.061Z,0.60
2019-05-03T09:10:16.792Z,0.90
2019-05-03T09:11:15.399Z,0.80
2019-05-03T09:12:14.491Z,0.60
2019-05-03T09:13:14.744Z,0.90
2019-05-03T09:14:14.970Z,0.60
2019-05-03T09:15:15.172Z,1.00
2019-05-03T09:16:14.773Z,0.60
2019-05-03T09:17:15.116Z,0.80
2019-05-03T09:18:16.848Z,1.00
2019-05-03T09:19:14.761Z,0.80
2019-05-03T09:20:15.449Z,1.00
2019-05-03T09:21:14.758Z,0.80
2019-05-03T09:22:14.795Z,0.70
2019-05-03T09:23:14.881Z,0.70
2019-05-03T09:24:15.027Z,0.60
2019-05-03T09:25:15.325Z,0.90
2019-05-03T09:26:15.113Z,0.70
2019-05-03T09:27:14.887Z,0.70
2019-05-03T09:28:15.063Z,1.00
2019-05-03T09:29:14.767Z,0.80
2019-05-03T09:30:14.538Z,1.00
2019-05-03T09:31:15.332Z,0.60
2019-05-03T09:32:14.732Z,0.90
2019-05-03T09:33:15.147Z,0.90
2019-05-03T09:34:14.776Z,0.90
2019-05-03T09:35:27.203Z,0.70
2019-05-03T09:36:14.672Z,0.90
2019-05-03T09:37:15.362Z,0.90
2019-05-03T09:38:15.017Z,0.80
2019-05-03T09:39:14.898Z,0.80
2019-05-03T09:40:15.054Z,1.20
2019-05-03T09:41:15.039Z,0.90
2019-05-03T09:42:15.392Z,0.90
2019-05-03T09:43:15.058Z,0.90
2019-05-03T09:44:15.081Z,1.10
2019-05-03T09:45:15.253Z,0.90
2019-05-03T09:46:14.594Z,1.10
2019-05-03T09:47:14.633Z,0.60
2019-05-03T09:48:15.039Z,0.90
2019-05-03T09:49:16.228Z,0.70
2019-05-03T09:50:15.473Z,0.70
2019-05-03T09:51:14.801Z,0.70
2019-05-03T09:52:15.805Z,0.80
2019-05-03T09:53:14.763Z,1.10
2019-05-03T09:54:14.858Z,1.00
2019-05-03T09:55:14.516Z,0.80
2019-05-03T09:56:15.370Z,0.80
2019-05-03T09:57:15.191Z,0.60
2019-05-03T09:58:15.160Z,0.70
2019-05-03T09:59:14.794Z,0.90
2019-05-03T10:00:13.529Z,0.90
2019-05-03T10:01:15.077Z,0.80
2019-05-03T10:02:15.031Z,0.80
2019-05-03T10:03:13.542Z,0.70
2019-05-03T10:04:13.538Z,0.60
2019-05-03T10:05:15.473Z,0.80
2019-05-03T10:06:15.296Z,0.90
2019-05-03T10:07:15.310Z,0.80
2019-05-03T10:08:15.595Z,0.70
2019-05-03T10:09:15.370Z,1.00
2019-05-03T10:10:15.424Z,0.80
2019-05-03T10:11:15.505Z,0.90
2019-05-03T10:12:15.966Z,0.60
2019-05-03T10:13:21.645Z,0.80
2019-05-03T10:14:15.440Z,0.90
2019-05-03T10:15:15.358Z,0.90
2019-05-03T10:16:15.397Z,0.80
2019-05-03T10:17:15.235Z,0.80
2019-05-03T10:18:13.561Z,0.60
2019-05-03T10:19:14.355Z,0.70
2019-05-03T10:20:15.288Z,0.80
2019-05-03T10:21:14.836Z,0.70
2019-05-03T10:22:15.374Z,0.90
2019-05-03T10:23:14.908Z,0.80
2019-05-03T10:24:15.222Z,1.10
2019-05-03T10:25:13.562Z,0.60
2019-05-03T10:26:14.993Z,0.80
2019-05-03T10:27:15.222Z,0.80
2019-05-03T10:28:15.254Z,0.90
2019-05-03T10:29:15.256Z,1.20
2019-05-03T10:30:16.546Z,0.80
2019-05-03T10:31:13.567Z,0.90
2019-05-03T10:32:15.121Z,0.80
2019-05-03T10:33:15.519Z,0.80
2019-05-03T10:34:15.423Z,0.90
2019-05-03T10:35:15.175Z,0.80
2019-05-03T10:36:15.400Z,0.70
2019-05-03T10:37:15.151Z,0.80
2019-05-03T10:38:15.142Z,0.80
2019-05-03T10:39:15.380Z,0.90
2019-05-03T10:40:13.560Z,0.80
2019-05-03T10:41:13.561Z,0.90
2019-05-03T10:42:13.562Z,0.80
2019-05-03T10:43:13.562Z,0.80
2019-05-03T10:44:15.059Z,1.00
2019-05-03T10:45:15.190Z,0.70
2019-05-03T10:46:15.672Z,0.80
2019-05-03T10:47:14.677Z,1.00
2019-05-03T10:48:15.362Z,0.80
2019-05-03T10:49:15.174Z,0.80
2019-05-03T10:50:15.447Z,0.70
2019-05-03T10:51:15.366Z,0.90
2019-05-03T10:52:15.025Z,0.70
2019-05-03T10:53:15.286Z,0.70
2019-05-03T10:54:14.622Z,0.80
2019-05-03T10:55:15.717Z,0.80
2019-05-03T10:56:14.796Z,1.00
2019-05-03T10:57:15.754Z,0.90
2019-05-03T10:58:15.554Z,0.70
2019-05-03T10:59:13.556Z,0.90
2019-05-03T11:00:41.706Z,0.80
2019-05-03T11:01:13.557Z,0.90
2019-05-03T11:02:13.557Z,0.80
2019-05-03T11:03:13.556Z,1.10
2019-05-03T11:04:14.758Z,0.80
2019-05-03T11:05:14.627Z,0.70
2019-05-03T11:06:14.818Z,0.70
2019-05-03T11:07:14.910Z,1.00
2019-05-03T11:08:14.562Z,0.70
2019-05-03T11:09:15.261Z,0.80
2019-05-03T11:10:14.686Z,0.70
2019-05-03T11:11:15.107Z,0.60
2019-05-03T11:12:14.794Z,0.90
2019-05-03T11:13:15.306Z,0.70
2019-05-03T11:14:14.958Z,0.70
2019-05-03T11:15:14.965Z,0.60
2019-05-03T11:16:14.822Z,1.00
2019-05-03T11:17:14.857Z,1.20
2019-05-03T11:18:14.696Z,0.70
2019-05-03T11:19:14.516Z,1.20
2019-05-03T11:20:22.206Z,1.10
2019-05-03T11:21:15.527Z,0.80
2019-05-03T11:22:14.577Z,0.70
2019-05-03T11:23:14.646Z,1.10
2019-05-03T11:24:14.787Z,1.10
2019-05-03T11:25:13.549Z,0.60
2019-05-03T11:26:13.549Z,0.60
2019-05-03T11:27:13.548Z,0.70
2019-05-03T11:28:13.546Z,0.70
2019-05-03T11:29:15.365Z,0.80
2019-05-03T11:30:15.637Z,0.70
2019-05-03T11:31:15.494Z,0.60
2019-05-03T11:32:14.904Z,1.00
2019-05-03T11:33:15.157Z,1.00
2019-05-03T11:34:15.092Z,0.80
2019-05-03T11:35:15.017Z,0.90
2019-05-03T11:36:14.950Z,0.80
2019-05-03T11:37:14.547Z,0.90
2019-05-03T11:38:15.070Z,0.90
2019-05-03T11:39:14.493Z,0.80
2019-05-03T11:40:15.545Z,0.90
2019-05-03T11:41:16.469Z,0.90
2019-05-03T11:42:15.173Z,0.80
2019-05-03T11:43:15.144Z,0.80
2019-05-03T11:44:15.371Z,0.70
2019-05-03T11:45:15.148Z,0.80
2019-05-03T11:46:13.523Z,0.90
2019-05-03T11:47:15.035Z,1.00
2019-05-03T11:48:14.811Z,1.00
2019-05-03T11:49:14.864Z,0.70
2019-05-03T11:50:14.815Z,0.60
2019-05-03T11:51:15.182Z,0.70
2019-05-03T11:52:15.740Z,0.70
2019-05-03T11:53:14.542Z,0.80
2019-05-03T11:54:15.534Z,0.60
2019-05-03T11:55:15.743Z,0.80
2019-05-03T11:56:14.844Z,0.70
2019-05-03T11:57:15.673Z,0.90
2019-05-03T11:58:14.947Z,0.70
2019-05-03T11:59:14.771Z,0.70
2019-05-03T12:00:14.726Z,0.70
2019-05-03T12:01:19.521Z,0.70
2019-05-03T12:02:15.239Z,1.00
2019-05-03T12:03:15.236Z,0.80
2019-05-03T12:04:15.316Z,0.70
2019-05-03T12:05:15.096Z,0.80
2019-05-03T12:06:15.509Z,0.90
2019-05-03T12:07:15.318Z,0.80
2019-05-03T12:08:14.751Z,0.90
2019-05-03T12:09:15.464Z,0.60
2019-05-03T12:10:26.606Z,1.00
2019-05-03T12:11:15.080Z,1.00
2019-05-03T12:12:15.046Z,0.90
2019-05-03T12:13:15.583Z,0.90
2019-05-03T12:14:15.204Z,0.80
2019-05-03T12:15:14.970Z,0.80
2019-05-03T12:16:19.452Z,0.70
2019-05-03T12:17:20.869Z,0.70
2019-05-03T12:18:15.895Z,0.80
2019-05-03T12:19:17.910Z,0.70
2019-05-03T12:20:16.744Z,0.60
2019-05-03T12:21:16.908Z,1.00
2019-05-03T12:22:14.273Z,0.90
2019-05-03T12:23:16.053Z,0.90
2019-05-03T12:24:15.589Z,0.80
2019-05-03T12:25:15.905Z,0.80
2019-05-03T12:26:14.713Z,0.70
2019-05-03T12:27:15.023Z,1.00
2019-05-03T12:28:15.302Z,1.00
2019-05-03T12:29:15.246Z,0.80
2019-05-03T12:30:15.276Z,1.30
2019-05-03T12:31:29.787Z,0.80
2019-05-03T12:32:14.433Z,1.30
2019-05-03T12:33:15.308Z,0.90
2019-05-03T12:34:13.456Z,0.90
2019-05-03T12:35:15.382Z,0.80
2019-05-03T12:36:15.251Z,0.80
2019-05-03T12:37:15.455Z,1.00
2019-05-03T12:38:16.294Z,0.90
2019-05-03T12:39:24.097Z,1.20
2019-05-03T12:40:14.944Z,0.90
2019-05-03T12:41:15.053Z,0.90
2019-05-03T12:42:14.862Z,0.90
2019-05-03T12:43:14.963Z,0.80
2019-05-03T12:44:15.181Z,0.90
2019-05-03T12:45:15.066Z,0.70
2019-05-03T12:46:16.644Z,0.90
2019-05-03T12:47:14.561Z,0.90
2019-05-03T12:48:15.367Z,0.80
2019-05-03T12:49:15.411Z,0.80
2019-05-03T12:50:15.459Z,1.00
2019-05-03T12:51:15.217Z,1.00
2019-05-03T12:52:16.096Z,1.70
2019-05-03T12:53:15.089Z,1.20
2019-05-03T12:54:15.175Z,1.20
2019-05-03T12:55:15.227Z,1.10
2019-05-03T12:56:16.098Z,1.00
2019-05-03T12:57:15.386Z,0.80
2019-05-03T12:58:15.035Z,0.70
2019-05-03T12:59:13.404Z,1.20
2019-05-03T13:00:15.523Z,0.80
2019-05-03T13:01:15.610Z,1.20
2019-05-03T13:02:15.374Z,1.00
2019-05-03T13:03:15.087Z,0.80
2019-05-03T13:04:15.169Z,0.80
2019-05-03T13:05:15.383Z,1.00
2019-05-03T13:06:14.902Z,0.90
2019-05-03T13:07:14.838Z,1.00
2019-05-03T13:08:15.156Z,1.10
2019-05-03T13:09:13.387Z,0.90
2019-05-03T13:10:20.468Z,1.10
2019-05-03T13:11:13.383Z,1.20
2019-05-03T13:12:14.728Z,0.90
2019-05-03T13:13:14.648Z,0.90
2019-05-03T13:14:15.565Z,1.10
2019-05-03T13:15:14.470Z,1.10
2019-05-03T13:16:15.180Z,0.90
2019-05-03T13:17:15.062Z,1.00
2019-05-03T13:18:15.556Z,0.90